sensor_id;sensor_type;location;lat;lon;timestamp;temperature;humidity
25450;DHT22;13371;52.080;5.624;2022-09-17T00:02:22;14.60;90.80
25450;DHT22;13371;52.080;5.624;2022-09-17T00:04:49;14.90;90.60
25450;DHT22;13371;52.080;5.624;2022-09-17T00:07:15;15.00;90.50
25450;DHT22;13371;52.080;5.624;2022-09-17T00:09:41;15.10;90.10
25450;DHT22;13371;52.080;5.624;2022-09-17T00:12:06;15.00;90.00
25450;DHT22;13371;52.080;5.624;2022-09-17T00:14:32;14.90;90.60
25450;DHT22;13371;52.080;5.624;2022-09-17T00:16:57;15.10;90.40
25450;DHT22;13371;52.080;5.624;2022-09-17T00:19:23;15.20;90.40
25450;DHT22;13371;52.080;5.624;2022-09-17T00:21:50;15.20;90.40
25450;DHT22;13371;52.080;5.624;2022-09-17T00:24:16;15.30;90.40
25450;DHT22;13371;52.080;5.624;2022-09-17T00:26:42;15.20;90.60
25450;DHT22;13371;52.080;5.624;2022-09-17T00:29:09;15.20;90.50
25450;DHT22;13371;52.080;5.624;2022-09-17T00:31:35;15.40;90.40
25450;DHT22;13371;52.080;5.624;2022-09-17T00:34:02;14.80;90.50
25450;DHT22;13371;52.080;5.624;2022-09-17T00:36:28;14.70;91.40
25450;DHT22;13371;52.080;5.624;2022-09-17T00:38:56;14.90;91.20
25450;DHT22;13371;52.080;5.624;2022-09-17T00:41:24;15.00;91.00
25450;DHT22;13371;52.080;5.624;2022-09-17T00:43:52;15.00;90.80
25450;DHT22;13371;52.080;5.624;2022-09-17T00:46:32;15.10;90.70
25450;DHT22;13371;52.080;5.624;2022-09-17T00:49:03;15.10;90.60
25450;DHT22;13371;52.080;5.624;2022-09-17T00:51:35;15.00;90.90
25450;DHT22;13371;52.080;5.624;2022-09-17T00:54:03;15.00;90.80
25450;DHT22;13371;52.080;5.624;2022-09-17T00:56:33;15.00;91.00
25450;DHT22;13371;52.080;5.624;2022-09-17T00:59:00;15.00;91.10
25450;DHT22;13371;52.080;5.624;2022-09-17T01:01:26;15.00;91.00
25450;DHT22;13371;52.080;5.624;2022-09-17T01:03:51;15.00;90.90
25450;DHT22;13371;52.080;5.624;2022-09-17T01:06:23;15.10;91.00
25450;DHT22;13371;52.080;5.624;2022-09-17T01:14:45;15.00;90.90
25450;DHT22;13371;52.080;5.624;2022-09-17T01:17:20;15.00;90.90
25450;DHT22;13371;52.080;5.624;2022-09-17T01:26:07;14.90;90.50
25450;DHT22;13371;52.080;5.624;2022-09-17T01:37:11;14.70;91.00
25450;DHT22;13371;52.080;5.624;2022-09-17T01:42:19;14.60;91.00
25450;DHT22;13371;52.080;5.624;2022-09-17T01:45:09;14.50;91.10
25450;DHT22;13371;52.080;5.624;2022-09-17T01:48:09;14.70;90.90
25450;DHT22;13371;52.080;5.624;2022-09-17T01:50:45;14.70;90.80
25450;DHT22;13371;52.080;5.624;2022-09-17T01:53:13;14.60;90.60
25450;DHT22;13371;52.080;5.624;2022-09-17T01:55:42;14.50;90.90
25450;DHT22;13371;52.080;5.624;2022-09-17T01:58:41;14.40;90.90
25450;DHT22;13371;52.080;5.624;2022-09-17T02:01:11;14.50;90.70
25450;DHT22;13371;52.080;5.624;2022-09-17T02:03:48;14.40;90.70
25450;DHT22;13371;52.080;5.624;2022-09-17T02:06:18;14.40;90.50
25450;DHT22;13371;52.080;5.624;2022-09-17T02:08:50;14.40;90.70
25450;DHT22;13371;52.080;5.624;2022-09-17T02:11:18;14.40;90.70
25450;DHT22;13371;52.080;5.624;2022-09-17T02:14:02;14.30;90.60
25450;DHT22;13371;52.080;5.624;2022-09-17T02:16:32;14.30;90.50
25450;DHT22;13371;52.080;5.624;2022-09-17T02:19:08;14.10;90.70
25450;DHT22;13371;52.080;5.624;2022-09-17T02:21:45;14.10;90.90
25450;DHT22;13371;52.080;5.624;2022-09-17T02:24:22;14.20;90.70
25450;DHT22;13371;52.080;5.624;2022-09-17T02:29:38;14.00;90.80
25450;DHT22;13371;52.080;5.624;2022-09-17T02:32:05;14.00;90.90
25450;DHT22;13371;52.080;5.624;2022-09-17T02:34:32;14.00;90.80
25450;DHT22;13371;52.080;5.624;2022-09-17T02:36:59;13.90;90.80
25450;DHT22;13371;52.080;5.624;2022-09-17T02:39:25;13.90;90.80
25450;DHT22;13371;52.080;5.624;2022-09-17T02:42:00;13.90;90.90
25450;DHT22;13371;52.080;5.624;2022-09-17T02:44:37;14.00;90.80
25450;DHT22;13371;52.080;5.624;2022-09-17T02:52:57;13.80;90.90
25450;DHT22;13371;52.080;5.624;2022-09-17T02:55:41;13.80;91.00
25450;DHT22;13371;52.080;5.624;2022-09-17T02:58:18;13.90;90.80
25450;DHT22;13371;52.080;5.624;2022-09-17T03:00:46;13.80;90.70
25450;DHT22;13371;52.080;5.624;2022-09-17T03:03:35;13.80;90.70
25450;DHT22;13371;52.080;5.624;2022-09-17T03:06:02;13.80;90.70
25450;DHT22;13371;52.080;5.624;2022-09-17T03:08:32;13.70;90.70
25450;DHT22;13371;52.080;5.624;2022-09-17T03:10:58;13.70;90.70
25450;DHT22;13371;52.080;5.624;2022-09-17T03:13:24;13.70;90.60
25450;DHT22;13371;52.080;5.624;2022-09-17T03:15:49;13.60;90.70
25450;DHT22;13371;52.080;5.624;2022-09-17T03:18:15;13.60;90.70
25450;DHT22;13371;52.080;5.624;2022-09-17T03:20:40;13.50;90.90
25450;DHT22;13371;52.080;5.624;2022-09-17T03:23:06;13.40;91.10
25450;DHT22;13371;52.080;5.624;2022-09-17T03:25:31;13.40;91.00
25450;DHT22;13371;52.080;5.624;2022-09-17T03:27:57;13.40;90.80
25450;DHT22;13371;52.080;5.624;2022-09-17T03:30:22;13.40;91.20
25450;DHT22;13371;52.080;5.624;2022-09-17T03:32:48;13.40;90.90
25450;DHT22;13371;52.080;5.624;2022-09-17T03:35:14;13.50;90.60
25450;DHT22;13371;52.080;5.624;2022-09-17T03:37:39;13.40;90.70
25450;DHT22;13371;52.080;5.624;2022-09-17T03:40:05;13.30;90.50
25450;DHT22;13371;52.080;5.624;2022-09-17T03:42:31;13.30;90.60
25450;DHT22;13371;52.080;5.624;2022-09-17T03:44:56;13.20;90.60
25450;DHT22;13371;52.080;5.624;2022-09-17T03:47:22;13.10;90.90
25450;DHT22;13371;52.080;5.624;2022-09-17T03:49:48;13.00;90.90
25450;DHT22;13371;52.080;5.624;2022-09-17T03:52:13;12.90;90.90
25450;DHT22;13371;52.080;5.624;2022-09-17T03:54:39;13.00;91.00
25450;DHT22;13371;52.080;5.624;2022-09-17T03:57:04;13.00;90.90
25450;DHT22;13371;52.080;5.624;2022-09-17T03:59:30;12.90;91.00
25450;DHT22;13371;52.080;5.624;2022-09-17T04:01:56;12.80;91.10
25450;DHT22;13371;52.080;5.624;2022-09-17T04:04:22;12.60;91.20
25450;DHT22;13371;52.080;5.624;2022-09-17T04:06:47;12.70;91.70
25450;DHT22;13371;52.080;5.624;2022-09-17T04:09:13;12.60;91.80
25450;DHT22;13371;52.080;5.624;2022-09-17T04:11:39;12.50;91.90
25450;DHT22;13371;52.080;5.624;2022-09-17T04:14:04;12.60;92.10
25450;DHT22;13371;52.080;5.624;2022-09-17T04:16:30;12.70;92.50
25450;DHT22;13371;52.080;5.624;2022-09-17T04:18:55;12.70;91.90
25450;DHT22;13371;52.080;5.624;2022-09-17T04:21:21;12.60;91.80
25450;DHT22;13371;52.080;5.624;2022-09-17T04:23:46;12.50;92.10
25450;DHT22;13371;52.080;5.624;2022-09-17T04:26:12;12.50;92.20
25450;DHT22;13371;52.080;5.624;2022-09-17T04:28:38;12.40;92.10
25450;DHT22;13371;52.080;5.624;2022-09-17T04:31:03;12.60;92.50
25450;DHT22;13371;52.080;5.624;2022-09-17T04:33:29;12.50;92.60
25450;DHT22;13371;52.080;5.624;2022-09-17T04:35:54;12.60;92.20
25450;DHT22;13371;52.080;5.624;2022-09-17T04:38:20;12.60;92.20
25450;DHT22;13371;52.080;5.624;2022-09-17T04:40:46;12.50;92.40
25450;DHT22;13371;52.080;5.624;2022-09-17T04:43:12;12.60;92.50
25450;DHT22;13371;52.080;5.624;2022-09-17T04:45:38;12.60;92.20
25450;DHT22;13371;52.080;5.624;2022-09-17T04:48:03;12.70;92.30
25450;DHT22;13371;52.080;5.624;2022-09-17T04:50:29;12.70;92.20
25450;DHT22;13371;52.080;5.624;2022-09-17T04:52:55;12.70;92.20
25450;DHT22;13371;52.080;5.624;2022-09-17T04:55:21;12.80;92.10
25450;DHT22;13371;52.080;5.624;2022-09-17T04:57:48;12.80;92.30
25450;DHT22;13371;52.080;5.624;2022-09-17T05:00:15;12.90;91.80
25450;DHT22;13371;52.080;5.624;2022-09-17T05:02:43;12.90;91.80
25450;DHT22;13371;52.080;5.624;2022-09-17T05:05:09;13.00;91.70
25450;DHT22;13371;52.080;5.624;2022-09-17T05:07:37;13.00;91.50
25450;DHT22;13371;52.080;5.624;2022-09-17T05:10:03;13.00;91.50
25450;DHT22;13371;52.080;5.624;2022-09-17T05:12:29;13.20;91.20
25450;DHT22;13371;52.080;5.624;2022-09-17T05:14:55;13.10;91.20
25450;DHT22;13371;52.080;5.624;2022-09-17T05:17:20;13.20;91.00
25450;DHT22;13371;52.080;5.624;2022-09-17T05:19:46;13.20;91.00
25450;DHT22;13371;52.080;5.624;2022-09-17T05:22:11;13.20;91.00
25450;DHT22;13371;52.080;5.624;2022-09-17T05:24:37;13.20;90.80
25450;DHT22;13371;52.080;5.624;2022-09-17T05:27:04;13.20;90.80
25450;DHT22;13371;52.080;5.624;2022-09-17T05:29:30;13.20;90.70
25450;DHT22;13371;52.080;5.624;2022-09-17T05:31:56;13.10;90.50
25450;DHT22;13371;52.080;5.624;2022-09-17T05:34:21;13.10;90.80
25450;DHT22;13371;52.080;5.624;2022-09-17T05:36:47;13.10;90.80
25450;DHT22;13371;52.080;5.624;2022-09-17T05:39:13;12.80;91.20
25450;DHT22;13371;52.080;5.624;2022-09-17T05:41:39;13.00;91.20
25450;DHT22;13371;52.080;5.624;2022-09-17T05:44:04;13.00;91.00
25450;DHT22;13371;52.080;5.624;2022-09-17T05:46:30;12.80;91.00
25450;DHT22;13371;52.080;5.624;2022-09-17T05:48:56;12.90;91.60
25450;DHT22;13371;52.080;5.624;2022-09-17T05:51:22;12.90;91.20
25450;DHT22;13371;52.080;5.624;2022-09-17T05:53:48;12.60;91.30
25450;DHT22;13371;52.080;5.624;2022-09-17T05:56:13;12.50;91.30
25450;DHT22;13371;52.080;5.624;2022-09-17T05:58:39;12.50;91.80
25450;DHT22;13371;52.080;5.624;2022-09-17T06:01:05;12.60;91.90
25450;DHT22;13371;52.080;5.624;2022-09-17T06:03:30;12.50;91.50
25450;DHT22;13371;52.080;5.624;2022-09-17T06:05:58;12.70;91.90
25450;DHT22;13371;52.080;5.624;2022-09-17T06:08:25;12.90;91.80
25450;DHT22;13371;52.080;5.624;2022-09-17T06:10:50;12.60;92.00
25450;DHT22;13371;52.080;5.624;2022-09-17T06:13:17;12.50;92.40
25450;DHT22;13371;52.080;5.624;2022-09-17T06:15:48;12.30;92.40
25450;DHT22;13371;52.080;5.624;2022-09-17T06:18:14;12.60;92.70
25450;DHT22;13371;52.080;5.624;2022-09-17T06:20:39;12.70;92.20
25450;DHT22;13371;52.080;5.624;2022-09-17T06:23:05;12.70;92.40
25450;DHT22;13371;52.080;5.624;2022-09-17T06:25:31;13.10;92.00
25450;DHT22;13371;52.080;5.624;2022-09-17T06:27:56;13.10;91.60
25450;DHT22;13371;52.080;5.624;2022-09-17T06:30:22;13.20;91.60
25450;DHT22;13371;52.080;5.624;2022-09-17T06:32:47;13.10;91.70
25450;DHT22;13371;52.080;5.624;2022-09-17T06:35:13;13.20;91.70
25450;DHT22;13371;52.080;5.624;2022-09-17T06:37:38;13.30;91.80
25450;DHT22;13371;52.080;5.624;2022-09-17T06:40:06;13.30;91.70
25450;DHT22;13371;52.080;5.624;2022-09-17T06:42:31;13.30;91.70
25450;DHT22;13371;52.080;5.624;2022-09-17T06:44:57;13.40;91.80
25450;DHT22;13371;52.080;5.624;2022-09-17T06:47:23;13.40;91.90
25450;DHT22;13371;52.080;5.624;2022-09-17T06:49:49;13.50;91.80
25450;DHT22;13371;52.080;5.624;2022-09-17T06:52:15;13.70;91.70
25450;DHT22;13371;52.080;5.624;2022-09-17T06:54:40;13.90;91.40
25450;DHT22;13371;52.080;5.624;2022-09-17T06:57:06;14.00;91.40
25450;DHT22;13371;52.080;5.624;2022-09-17T06:59:31;14.10;91.00
25450;DHT22;13371;52.080;5.624;2022-09-17T07:01:57;14.10;91.20
25450;DHT22;13371;52.080;5.624;2022-09-17T07:04:23;14.30;91.10
25450;DHT22;13371;52.080;5.624;2022-09-17T07:06:48;14.50;90.80
25450;DHT22;13371;52.080;5.624;2022-09-17T07:09:14;14.30;90.80
25450;DHT22;13371;52.080;5.624;2022-09-17T07:11:39;14.50;91.00
25450;DHT22;13371;52.080;5.624;2022-09-17T07:14:05;14.70;90.80
25450;DHT22;13371;52.080;5.624;2022-09-17T07:16:31;14.70;90.80
25450;DHT22;13371;52.080;5.624;2022-09-17T07:19:00;15.00;90.70
25450;DHT22;13371;52.080;5.624;2022-09-17T07:21:26;15.20;90.10
25450;DHT22;13371;52.080;5.624;2022-09-17T07:23:52;14.60;90.00
25450;DHT22;13371;52.080;5.624;2022-09-17T07:26:17;14.80;90.90
25450;DHT22;13371;52.080;5.624;2022-09-17T07:28:43;14.70;90.40
25450;DHT22;13371;52.080;5.624;2022-09-17T07:31:10;14.90;90.40
25450;DHT22;13371;52.080;5.624;2022-09-17T07:33:37;15.00;90.60
25450;DHT22;13371;52.080;5.624;2022-09-17T07:36:09;15.00;90.60
25450;DHT22;13371;52.080;5.624;2022-09-17T07:38:35;15.00;90.20
25450;DHT22;13371;52.080;5.624;2022-09-17T07:41:05;15.20;90.10
25450;DHT22;13371;52.080;5.624;2022-09-17T07:43:34;15.40;90.00
25450;DHT22;13371;52.080;5.624;2022-09-17T07:46:03;15.30;88.10
25450;DHT22;13371;52.080;5.624;2022-09-17T07:48:29;15.60;89.70
25450;DHT22;13371;52.080;5.624;2022-09-17T07:50:55;15.70;88.20
25450;DHT22;13371;52.080;5.624;2022-09-17T07:53:21;15.90;88.00
25450;DHT22;13371;52.080;5.624;2022-09-17T07:56:05;16.00;87.50
25450;DHT22;13371;52.080;5.624;2022-09-17T07:58:33;16.20;86.70
25450;DHT22;13371;52.080;5.624;2022-09-17T08:01:07;16.40;88.40
25450;DHT22;13371;52.080;5.624;2022-09-17T08:03:34;16.50;86.30
25450;DHT22;13371;52.080;5.624;2022-09-17T08:06:11;16.80;86.90
25450;DHT22;13371;52.080;5.624;2022-09-17T08:08:38;16.60;83.50
25450;DHT22;13371;52.080;5.624;2022-09-17T08:11:12;16.70;85.70
25450;DHT22;13371;52.080;5.624;2022-09-17T08:13:38;16.70;85.90
25450;DHT22;13371;52.080;5.624;2022-09-17T08:16:10;16.80;84.60
25450;DHT22;13371;52.080;5.624;2022-09-17T08:18:40;16.90;84.30
25450;DHT22;13371;52.080;5.624;2022-09-17T08:21:08;17.00;83.20
25450;DHT22;13371;52.080;5.624;2022-09-17T08:23:35;17.00;83.10
25450;DHT22;13371;52.080;5.624;2022-09-17T08:26:01;16.90;84.00
25450;DHT22;13371;52.080;5.624;2022-09-17T08:28:29;17.00;83.20
25450;DHT22;13371;52.080;5.624;2022-09-17T08:31:03;16.70;83.70
25450;DHT22;13371;52.080;5.624;2022-09-17T08:33:33;16.50;84.90
25450;DHT22;13371;52.080;5.624;2022-09-17T08:35:59;16.70;85.60
25450;DHT22;13371;52.080;5.624;2022-09-17T08:38:29;16.40;86.80
25450;DHT22;13371;52.080;5.624;2022-09-17T08:46:09;16.50;86.10
25450;DHT22;13371;52.080;5.624;2022-09-17T08:48:44;16.40;86.00
25450;DHT22;13371;52.080;5.624;2022-09-17T08:51:55;16.20;85.80
25450;DHT22;13371;52.080;5.624;2022-09-17T08:54:44;16.30;86.40
25450;DHT22;13371;52.080;5.624;2022-09-17T09:00:16;17.10;81.60
25450;DHT22;13371;52.080;5.624;2022-09-17T09:05:30;18.00;81.50
25450;DHT22;13371;52.080;5.624;2022-09-17T09:08:09;18.10;80.10
25450;DHT22;13371;52.080;5.624;2022-09-17T09:10:51;18.30;79.10
25450;DHT22;13371;52.080;5.624;2022-09-17T09:13:21;18.40;79.80
25450;DHT22;13371;52.080;5.624;2022-09-17T09:15:54;18.60;79.40
25450;DHT22;13371;52.080;5.624;2022-09-17T09:18:32;18.30;77.30
25450;DHT22;13371;52.080;5.624;2022-09-17T09:23:52;18.80;78.70
25450;DHT22;13371;52.080;5.624;2022-09-17T09:26:44;19.00;77.40
25450;DHT22;13371;52.080;5.624;2022-09-17T09:32:12;19.20;76.70
25450;DHT22;13371;52.080;5.624;2022-09-17T09:34:41;19.50;75.20
25450;DHT22;13371;52.080;5.624;2022-09-17T09:37:20;19.70;76.10
25450;DHT22;13371;52.080;5.624;2022-09-17T09:39:50;20.20;74.10
25450;DHT22;13371;52.080;5.624;2022-09-17T09:42:24;20.50;74.20
25450;DHT22;13371;52.080;5.624;2022-09-17T09:44:52;20.30;72.20
25450;DHT22;13371;52.080;5.624;2022-09-17T09:48:14;20.20;73.60
25450;DHT22;13371;52.080;5.624;2022-09-17T09:50:46;20.10;73.90
25450;DHT22;13371;52.080;5.624;2022-09-17T09:58:55;18.90;74.60
25450;DHT22;13371;52.080;5.624;2022-09-17T10:01:20;18.80;78.10
25450;DHT22;13371;52.080;5.624;2022-09-17T10:03:48;18.80;80.60
25450;DHT22;13371;52.080;5.624;2022-09-17T10:06:16;18.20;78.40
25450;DHT22;13371;52.080;5.624;2022-09-17T10:11:23;17.90;84.10
25450;DHT22;13371;52.080;5.624;2022-09-17T10:13:49;18.30;81.30
25450;DHT22;13371;52.080;5.624;2022-09-17T10:16:25;18.30;82.00
25450;DHT22;13371;52.080;5.624;2022-09-17T10:19:15;18.30;84.80
25450;DHT22;13371;52.080;5.624;2022-09-17T10:21:43;18.00;86.20
25450;DHT22;13371;52.080;5.624;2022-09-17T10:24:23;17.60;86.60
25450;DHT22;13371;52.080;5.624;2022-09-17T10:26:50;17.50;89.80
25450;DHT22;13371;52.080;5.624;2022-09-17T10:29:18;17.80;90.00
25450;DHT22;13371;52.080;5.624;2022-09-17T10:31:53;18.10;89.10
25450;DHT22;13371;52.080;5.624;2022-09-17T10:34:19;18.50;88.30
25450;DHT22;13371;52.080;5.624;2022-09-17T10:36:46;18.90;84.90
25450;DHT22;13371;52.080;5.624;2022-09-17T10:39:34;19.10;85.50
25450;DHT22;13371;52.080;5.624;2022-09-17T10:42:02;19.20;84.30
25450;DHT22;13371;52.080;5.624;2022-09-17T10:44:34;19.30;83.90
25450;DHT22;13371;52.080;5.624;2022-09-17T10:47:21;19.70;82.90
25450;DHT22;13371;52.080;5.624;2022-09-17T10:52:36;19.30;81.30
25450;DHT22;13371;52.080;5.624;2022-09-17T10:55:27;19.30;81.40
25450;DHT22;13371;52.080;5.624;2022-09-17T11:03:36;18.60;80.00
25450;DHT22;13371;52.080;5.624;2022-09-17T11:06:21;18.90;79.20
25450;DHT22;13371;52.080;5.624;2022-09-17T11:09:08;19.30;80.10
25450;DHT22;13371;52.080;5.624;2022-09-17T11:14:48;19.50;79.60
25450;DHT22;13371;52.080;5.624;2022-09-17T11:22:50;19.70;76.00
25450;DHT22;13371;52.080;5.624;2022-09-17T11:31:36;20.40;75.30
25450;DHT22;13371;52.080;5.624;2022-09-17T11:34:10;20.20;73.20
25450;DHT22;13371;52.080;5.624;2022-09-17T11:36:47;20.10;71.80
25450;DHT22;13371;52.080;5.624;2022-09-17T11:39:20;19.70;74.20
25450;DHT22;13371;52.080;5.624;2022-09-17T11:41:48;19.30;74.20
25450;DHT22;13371;52.080;5.624;2022-09-17T11:44:32;19.30;74.40
25450;DHT22;13371;52.080;5.624;2022-09-17T11:47:06;19.20;75.50
25450;DHT22;13371;52.080;5.624;2022-09-17T11:54:56;18.80;75.20
25450;DHT22;13371;52.080;5.624;2022-09-17T11:57:34;18.60;73.00
25450;DHT22;13371;52.080;5.624;2022-09-17T12:00:05;18.30;74.80
25450;DHT22;13371;52.080;5.624;2022-09-17T12:02:59;18.50;76.20
25450;DHT22;13371;52.080;5.624;2022-09-17T12:05:33;18.50;75.20
25450;DHT22;13371;52.080;5.624;2022-09-17T12:08:14;18.60;74.10
25450;DHT22;13371;52.080;5.624;2022-09-17T12:21:39;19.10;74.30
25450;DHT22;13371;52.080;5.624;2022-09-17T12:24:30;19.00;76.60
25450;DHT22;13371;52.080;5.624;2022-09-17T12:29:57;18.60;79.10
25450;DHT22;13371;52.080;5.624;2022-09-17T12:32:56;18.00;78.80
25450;DHT22;13371;52.080;5.624;2022-09-17T12:38:56;17.00;81.80
25450;DHT22;13371;52.080;5.624;2022-09-17T12:41:32;16.70;82.90
25450;DHT22;13371;52.080;5.624;2022-09-17T12:44:21;16.70;81.40
25450;DHT22;13371;52.080;5.624;2022-09-17T12:49:29;17.30;81.40
25450;DHT22;13371;52.080;5.624;2022-09-17T12:52:01;17.60;80.20
25450;DHT22;13371;52.080;5.624;2022-09-17T12:57:52;18.00;79.20
25450;DHT22;13371;52.080;5.624;2022-09-17T13:00:20;18.20;80.20
25450;DHT22;13371;52.080;5.624;2022-09-17T13:22:16;16.30;84.70
25450;DHT22;13371;52.080;5.624;2022-09-17T13:24:44;16.50;83.80
25450;DHT22;13371;52.080;5.624;2022-09-17T13:27:21;16.60;83.40
25450;DHT22;13371;52.080;5.624;2022-09-17T13:32:42;17.10;85.30
25450;DHT22;13371;52.080;5.624;2022-09-17T13:42:50;17.90;83.10
25450;DHT22;13371;52.080;5.624;2022-09-17T13:45:17;17.80;81.40
25450;DHT22;13371;52.080;5.624;2022-09-17T13:48:03;18.00;80.50
25450;DHT22;13371;52.080;5.624;2022-09-17T13:50:38;18.20;81.90
25450;DHT22;13371;52.080;5.624;2022-09-17T13:55:48;18.30;77.00
25450;DHT22;13371;52.080;5.624;2022-09-17T14:00:54;18.00;87.10
25450;DHT22;13371;52.080;5.624;2022-09-17T14:08:47;17.20;87.20
25450;DHT22;13371;52.080;5.624;2022-09-17T14:19:29;17.20;86.70
25450;DHT22;13371;52.080;5.624;2022-09-17T14:22:19;17.40;87.10
25450;DHT22;13371;52.080;5.624;2022-09-17T14:24:50;17.60;84.90
25450;DHT22;13371;52.080;5.624;2022-09-17T14:46:21;18.10;75.20
25450;DHT22;13371;52.080;5.624;2022-09-17T14:48:48;18.40;74.30
25450;DHT22;13371;52.080;5.624;2022-09-17T14:53:43;18.50;74.50
25450;DHT22;13371;52.080;5.624;2022-09-17T14:56:11;18.80;71.30
25450;DHT22;13371;52.080;5.624;2022-09-17T14:58:42;18.60;74.50
25450;DHT22;13371;52.080;5.624;2022-09-17T15:01:36;18.70;73.30
25450;DHT22;13371;52.080;5.624;2022-09-17T15:06:37;18.50;75.30
25450;DHT22;13371;52.080;5.624;2022-09-17T15:09:03;18.60;74.70
25450;DHT22;13371;52.080;5.624;2022-09-17T15:11:30;18.80;74.50
25450;DHT22;13371;52.080;5.624;2022-09-17T15:13:58;18.90;74.60
25450;DHT22;13371;52.080;5.624;2022-09-17T15:16:25;19.10;73.60
25450;DHT22;13371;52.080;5.624;2022-09-17T15:18:57;19.20;72.00
25450;DHT22;13371;52.080;5.624;2022-09-17T15:21:33;19.30;72.20
25450;DHT22;13371;52.080;5.624;2022-09-17T15:24:21;19.30;71.20
25450;DHT22;13371;52.080;5.624;2022-09-17T15:26:52;19.00;72.50
25450;DHT22;13371;52.080;5.624;2022-09-17T15:29:24;17.80;80.10
25450;DHT22;13371;52.080;5.624;2022-09-17T15:31:51;18.00;81.60
25450;DHT22;13371;52.080;5.624;2022-09-17T15:34:17;17.90;82.30
25450;DHT22;13371;52.080;5.624;2022-09-17T15:37:16;17.90;83.00
25450;DHT22;13371;52.080;5.624;2022-09-17T15:39:46;17.90;82.30
25450;DHT22;13371;52.080;5.624;2022-09-17T15:42:24;17.60;82.30
25450;DHT22;13371;52.080;5.624;2022-09-17T15:44:50;17.50;81.10
25450;DHT22;13371;52.080;5.624;2022-09-17T15:47:54;17.40;80.90
25450;DHT22;13371;52.080;5.624;2022-09-17T15:50:23;17.20;82.30
25450;DHT22;13371;52.080;5.624;2022-09-17T15:52:56;17.10;82.10
25450;DHT22;13371;52.080;5.624;2022-09-17T15:58:00;17.30;82.10
25450;DHT22;13371;52.080;5.624;2022-09-17T16:00:27;17.40;81.80
25450;DHT22;13371;52.080;5.624;2022-09-17T16:02:53;17.50;80.40
25450;DHT22;13371;52.080;5.624;2022-09-17T16:07:52;17.50;79.00
25450;DHT22;13371;52.080;5.624;2022-09-17T16:10:18;17.30;78.60
25450;DHT22;13371;52.080;5.624;2022-09-17T16:12:44;17.30;79.20
25450;DHT22;13371;52.080;5.624;2022-09-17T16:15:13;17.20;77.70
25450;DHT22;13371;52.080;5.624;2022-09-17T16:17:46;17.40;78.10
25450;DHT22;13371;52.080;5.624;2022-09-17T16:22:45;17.70;76.20
25450;DHT22;13371;52.080;5.624;2022-09-17T16:25:12;17.80;76.30
25450;DHT22;13371;52.080;5.624;2022-09-17T16:27:59;17.70;75.90
25450;DHT22;13371;52.080;5.624;2022-09-17T16:30:25;17.60;76.20
25450;DHT22;13371;52.080;5.624;2022-09-17T16:32:51;17.60;77.20
25450;DHT22;13371;52.080;5.624;2022-09-17T16:35:20;17.40;77.30
25450;DHT22;13371;52.080;5.624;2022-09-17T16:37:54;17.20;78.00
25450;DHT22;13371;52.080;5.624;2022-09-17T16:40:22;17.20;78.60
25450;DHT22;13371;52.080;5.624;2022-09-17T16:42:47;17.20;79.10
25450;DHT22;13371;52.080;5.624;2022-09-17T16:45:13;17.20;79.60
25450;DHT22;13371;52.080;5.624;2022-09-17T16:47:40;17.30;79.60
25450;DHT22;13371;52.080;5.624;2022-09-17T16:50:08;17.30;78.40
25450;DHT22;13371;52.080;5.624;2022-09-17T16:52:35;17.40;79.40
25450;DHT22;13371;52.080;5.624;2022-09-17T16:55:01;17.20;78.60
25450;DHT22;13371;52.080;5.624;2022-09-17T16:57:26;17.40;79.80
25450;DHT22;13371;52.080;5.624;2022-09-17T16:59:52;17.60;78.70
25450;DHT22;13371;52.080;5.624;2022-09-17T17:02:19;17.50;79.00
25450;DHT22;13371;52.080;5.624;2022-09-17T17:04:44;17.70;77.70
25450;DHT22;13371;52.080;5.624;2022-09-17T17:07:10;17.60;77.90
25450;DHT22;13371;52.080;5.624;2022-09-17T17:09:36;17.50;78.70
25450;DHT22;13371;52.080;5.624;2022-09-17T17:12:02;17.60;78.60
25450;DHT22;13371;52.080;5.624;2022-09-17T17:14:28;17.60;78.60
25450;DHT22;13371;52.080;5.624;2022-09-17T17:16:53;17.60;79.60
25450;DHT22;13371;52.080;5.624;2022-09-17T17:19:19;17.50;78.40
25450;DHT22;13371;52.080;5.624;2022-09-17T17:21:44;17.50;78.10
25450;DHT22;13371;52.080;5.624;2022-09-17T17:24:10;17.30;81.70
25450;DHT22;13371;52.080;5.624;2022-09-17T17:26:36;17.00;82.40
25450;DHT22;13371;52.080;5.624;2022-09-17T17:29:02;16.70;84.80
25450;DHT22;13371;52.080;5.624;2022-09-17T17:31:27;16.60;87.30
25450;DHT22;13371;52.080;5.624;2022-09-17T17:33:53;16.30;88.20
25450;DHT22;13371;52.080;5.624;2022-09-17T17:36:18;16.10;88.20
25450;DHT22;13371;52.080;5.624;2022-09-17T17:38:44;16.10;90.40
25450;DHT22;13371;52.080;5.624;2022-09-17T17:41:12;16.00;90.30
25450;DHT22;13371;52.080;5.624;2022-09-17T17:43:38;16.00;90.40
25450;DHT22;13371;52.080;5.624;2022-09-17T17:46:09;15.90;89.50
25450;DHT22;13371;52.080;5.624;2022-09-17T17:48:35;15.40;90.70
25450;DHT22;13371;52.080;5.624;2022-09-17T17:51:05;15.70;90.80
25450;DHT22;13371;52.080;5.624;2022-09-17T17:53:32;15.80;90.60
25450;DHT22;13371;52.080;5.624;2022-09-17T17:56:00;15.90;90.40
25450;DHT22;13371;52.080;5.624;2022-09-17T17:58:26;15.80;90.30
25450;DHT22;13371;52.080;5.624;2022-09-17T18:00:52;15.70;90.20
25450;DHT22;13371;52.080;5.624;2022-09-17T18:03:18;15.70;90.40
25450;DHT22;13371;52.080;5.624;2022-09-17T18:05:44;15.90;90.50
25450;DHT22;13371;52.080;5.624;2022-09-17T18:08:10;16.10;90.20
25450;DHT22;13371;52.080;5.624;2022-09-17T18:10:35;16.10;89.80
25450;DHT22;13371;52.080;5.624;2022-09-17T18:13:01;15.70;89.80
25450;DHT22;13371;52.080;5.624;2022-09-17T18:15:26;15.80;89.30
25450;DHT22;13371;52.080;5.624;2022-09-17T18:17:52;15.90;90.10
25450;DHT22;13371;52.080;5.624;2022-09-17T18:20:18;15.90;90.00
25450;DHT22;13371;52.080;5.624;2022-09-17T18:22:46;15.70;89.10
25450;DHT22;13371;52.080;5.624;2022-09-17T18:25:12;15.40;90.50
25450;DHT22;13371;52.080;5.624;2022-09-17T18:27:37;15.30;90.50
25450;DHT22;13371;52.080;5.624;2022-09-17T18:30:03;15.30;90.40
25450;DHT22;13371;52.080;5.624;2022-09-17T18:32:29;15.30;91.10
25450;DHT22;13371;52.080;5.624;2022-09-17T18:34:55;15.30;91.70
25450;DHT22;13371;52.080;5.624;2022-09-17T18:37:20;15.00;91.10
25450;DHT22;13371;52.080;5.624;2022-09-17T18:39:46;14.90;91.10
25450;DHT22;13371;52.080;5.624;2022-09-17T18:42:13;14.70;92.00
25450;DHT22;13371;52.080;5.624;2022-09-17T18:44:38;14.90;91.90
25450;DHT22;13371;52.080;5.624;2022-09-17T18:47:04;15.10;91.60
25450;DHT22;13371;52.080;5.624;2022-09-17T18:49:30;15.20;91.50
25450;DHT22;13371;52.080;5.624;2022-09-17T18:51:55;15.30;91.10
25450;DHT22;13371;52.080;5.624;2022-09-17T18:54:21;15.30;91.30
25450;DHT22;13371;52.080;5.624;2022-09-17T18:56:46;15.10;91.40